Washington, Louisiana
Current Conditions -  °F | °C
As of 6:15 AM on Sunday 25 Jan 2015 (Local Time) from KOPL Reporting Station
Clear Clear  
Wind Chill: 39°   Ceiling: Unl
Heat Index: 42°   Visibility: 10mi
Dew Point: 41°   Wind: 5mph
Humidity: 97%   Direction: 200°SSW
Pressure: 30.02"   Gusts: NA
Location:  30.62°N, 92.06°W
Report Text: KOPL 251215Z AUTO 20004KT 10SM CLR 05/05 A3002 RMK AO2 T00540049
Loading
Personal Weather Stations






























Interactive Weather Map New forecast layout! Learn more

10-Day Weather Forecast

Advertisements
Track Severe Weather on mobile